sensor_id;sensor_type;location;lat;lon;timestamp;pressure;altitude;pressure_sealevel;temperature;humidity
13027;BME280;6580;42.680;23.324;2023-05-11T00:01:58;95487.31;;;10.76;100.00
13027;BME280;6580;42.680;23.324;2023-05-11T00:04:46;95497.19;;;10.66;100.00
13027;BME280;6580;42.680;23.324;2023-05-11T00:07:33;95487.53;;;10.65;100.00
13027;BME280;6580;42.680;23.324;2023-05-11T00:10:21;95490.34;;;10.64;100.00
13027;BME280;6580;42.680;23.324;2023-05-11T00:13:07;95488.75;;;10.71;100.00
13027;BME280;6580;42.680;23.324;2023-05-11T00:15:53;95479.44;;;10.75;100.00
13027;BME280;6580;42.680;23.324;2023-05-11T00:18:38;95485.72;;;10.66;100.00
13027;BME280;6580;42.680;23.324;2023-05-11T00:21:23;95498.97;;;10.75;100.00
13027;BME280;6580;42.680;23.324;2023-05-11T00:24:09;95483.03;;;10.66;100.00
13027;BME280;6580;42.680;23.324;2023-05-11T00:26:58;95491.56;;;10.52;100.00
13027;BME280;6580;42.680;23.324;2023-05-11T00:29:44;95487.84;;;10.62;100.00
13027;BME280;6580;42.680;23.324;2023-05-11T00:32:30;95495.16;;;10.60;100.00
13027;BME280;6580;42.680;23.324;2023-05-11T00:35:16;95480.00;;;10.61;100.00
13027;BME280;6580;42.680;23.324;2023-05-11T00:38:01;95488.44;;;10.56;100.00
13027;BME280;6580;42.680;23.324;2023-05-11T00:40:47;95493.59;;;10.58;100.00
13027;BME280;6580;42.680;23.324;2023-05-11T00:43:36;95498.41;;;10.54;100.00
13027;BME280;6580;42.680;23.324;2023-05-11T00:46:22;95489.91;;;10.51;100.00
13027;BME280;6580;42.680;23.324;2023-05-11T00:49:07;95494.66;;;10.47;100.00
13027;BME280;6580;42.680;23.324;2023-05-11T00:51:54;95500.75;;;10.40;100.00
13027;BME280;6580;42.680;23.324;2023-05-11T00:54:41;95496.72;;;10.36;100.00
13027;BME280;6580;42.680;23.324;2023-05-11T00:57:26;95497.44;;;10.28;100.00
13027;BME280;6580;42.680;23.324;2023-05-11T01:00:15;95497.03;;;10.33;100.00
13027;BME280;6580;42.680;23.324;2023-05-11T01:03:01;95503.28;;;10.41;100.00
13027;BME280;6580;42.680;23.324;2023-05-11T01:05:51;95502.00;;;10.45;100.00
13027;BME280;6580;42.680;23.324;2023-05-11T01:08:43;95498.41;;;10.37;100.00
13027;BME280;6580;42.680;23.324;2023-05-11T01:11:37;95496.41;;;10.39;100.00
13027;BME280;6580;42.680;23.324;2023-05-11T01:14:28;95506.16;;;10.48;100.00
13027;BME280;6580;42.680;23.324;2023-05-11T01:17:24;95491.75;;;10.23;100.00
13027;BME280;6580;42.680;23.324;2023-05-11T01:20:16;95498.75;;;10.24;100.00
13027;BME280;6580;42.680;23.324;2023-05-11T01:23:31;95495.41;;;10.22;100.00
13027;BME280;6580;42.680;23.324;2023-05-11T01:26:33;95500.19;;;10.19;100.00
13027;BME280;6580;42.680;23.324;2023-05-11T01:29:45;95512.81;;;10.17;100.00
13027;BME280;6580;42.680;23.324;2023-05-11T01:32:37;95498.81;;;10.15;100.00
13027;BME280;6580;42.680;23.324;2023-05-11T01:35:25;95500.50;;;10.16;100.00
13027;BME280;6580;42.680;23.324;2023-05-11T01:38:13;95503.09;;;10.25;100.00
13027;BME280;6580;42.680;23.324;2023-05-11T01:41:09;95502.47;;;10.14;100.00
13027;BME280;6580;42.680;23.324;2023-05-11T01:43:59;95503.84;;;10.18;100.00
13027;BME280;6580;42.680;23.324;2023-05-11T01:46:48;95508.47;;;10.16;100.00
13027;BME280;6580;42.680;23.324;2023-05-11T01:49:40;95504.22;;;9.96;100.00
13027;BME280;6580;42.680;23.324;2023-05-11T01:52:27;95502.53;;;9.95;100.00
13027;BME280;6580;42.680;23.324;2023-05-11T01:55:15;95507.44;;;10.00;100.00
13027;BME280;6580;42.680;23.324;2023-05-11T01:58:03;95500.31;;;10.00;100.00
13027;BME280;6580;42.680;23.324;2023-05-11T02:00:52;95521.78;;;10.16;100.00
13027;BME280;6580;42.680;23.324;2023-05-11T02:03:39;95516.28;;;9.91;100.00
13027;BME280;6580;42.680;23.324;2023-05-11T02:06:33;95498.28;;;9.75;100.00
13027;BME280;6580;42.680;23.324;2023-05-11T02:09:20;95500.97;;;9.93;100.00
13027;BME280;6580;42.680;23.324;2023-05-11T02:12:08;95510.34;;;10.06;100.00
13027;BME280;6580;42.680;23.324;2023-05-11T02:14:54;95503.50;;;9.94;100.00
13027;BME280;6580;42.680;23.324;2023-05-11T02:17:41;95499.19;;;9.93;100.00
13027;BME280;6580;42.680;23.324;2023-05-11T02:20:29;95491.34;;;9.92;100.00
13027;BME280;6580;42.680;23.324;2023-05-11T02:23:18;95496.63;;;10.01;100.00
13027;BME280;6580;42.680;23.324;2023-05-11T02:26:06;95491.66;;;9.89;100.00
13027;BME280;6580;42.680;23.324;2023-05-11T02:28:53;95496.06;;;9.98;100.00
13027;BME280;6580;42.680;23.324;2023-05-11T02:31:42;95493.84;;;9.93;100.00
13027;BME280;6580;42.680;23.324;2023-05-11T02:34:34;95487.72;;;9.83;100.00
13027;BME280;6580;42.680;23.324;2023-05-11T02:37:23;95489.66;;;10.00;100.00
13027;BME280;6580;42.680;23.324;2023-05-11T02:40:18;95496.06;;;9.98;100.00
13027;BME280;6580;42.680;23.324;2023-05-11T02:43:07;95497.91;;;9.97;100.00
13027;BME280;6580;42.680;23.324;2023-05-11T02:45:59;95498.88;;;9.96;100.00
13027;BME280;6580;42.680;23.324;2023-05-11T02:48:50;95500.31;;;10.00;100.00
13027;BME280;6580;42.680;23.324;2023-05-11T02:51:41;95491.66;;;9.89;100.00
13027;BME280;6580;42.680;23.324;2023-05-11T02:54:30;95495.81;;;10.01;100.00
13027;BME280;6580;42.680;23.324;2023-05-11T02:57:19;95488.00;;;9.99;100.00
13027;BME280;6580;42.680;23.324;2023-05-11T03:00:07;95498.31;;;9.93;100.00
13027;BME280;6580;42.680;23.324;2023-05-11T03:02:58;95479.75;;;9.83;100.00
13027;BME280;6580;42.680;23.324;2023-05-11T03:05:44;95494.06;;;9.82;100.00
13027;BME280;6580;42.680;23.324;2023-05-11T03:08:33;95483.22;;;9.93;100.00
13027;BME280;6580;42.680;23.324;2023-05-11T03:11:22;95488.47;;;9.76;100.00
13027;BME280;6580;42.680;23.324;2023-05-11T03:14:09;95488.16;;;9.79;100.00
13027;BME280;6580;42.680;23.324;2023-05-11T03:16:55;95485.47;;;9.88;100.00
13027;BME280;6580;42.680;23.324;2023-05-11T03:19:41;95491.69;;;9.79;100.00
13027;BME280;6580;42.680;23.324;2023-05-11T03:22:29;95493.03;;;9.83;100.00
13027;BME280;6580;42.680;23.324;2023-05-11T03:25:16;95495.16;;;9.80;100.00
13027;BME280;6580;42.680;23.324;2023-05-11T03:28:03;95487.75;;;9.74;100.00
13027;BME280;6580;42.680;23.324;2023-05-11T03:30:53;95484.44;;;9.72;100.00
13027;BME280;6580;42.680;23.324;2023-05-11T03:33:43;95508.22;;;9.73;100.00
13027;BME280;6580;42.680;23.324;2023-05-11T03:36:31;95502.22;;;9.71;100.00
13027;BME280;6580;42.680;23.324;2023-05-11T03:39:17;95498.13;;;9.77;100.00
13027;BME280;6580;42.680;23.324;2023-05-11T03:42:08;95498.75;;;9.61;100.00
13027;BME280;6580;42.680;23.324;2023-05-11T03:44:56;95505.03;;;9.70;100.00
13027;BME280;6580;42.680;23.324;2023-05-11T03:47:47;95504.25;;;9.87;100.00
13027;BME280;6580;42.680;23.324;2023-05-11T03:50:35;95506.78;;;9.79;100.00
13027;BME280;6580;42.680;23.324;2023-05-11T03:53:22;95508.09;;;9.65;100.00
13027;BME280;6580;42.680;23.324;2023-05-11T03:56:08;95512.28;;;9.77;100.00
13027;BME280;6580;42.680;23.324;2023-05-11T03:58:57;95512.03;;;9.71;100.00
13027;BME280;6580;42.680;23.324;2023-05-11T04:01:43;95518.63;;;9.57;100.00
13027;BME280;6580;42.680;23.324;2023-05-11T04:04:31;95511.91;;;9.63;100.00
13027;BME280;6580;42.680;23.324;2023-05-11T04:07:16;95520.53;;;9.74;100.00
13027;BME280;6580;42.680;23.324;2023-05-11T04:10:04;95505.59;;;9.64;100.00
13027;BME280;6580;42.680;23.324;2023-05-11T04:12:52;95517.25;;;9.53;100.00
13027;BME280;6580;42.680;23.324;2023-05-11T04:15:38;95511.66;;;9.56;100.00
13027;BME280;6580;42.680;23.324;2023-05-11T04:18:24;95522.25;;;9.66;100.00
13027;BME280;6580;42.680;23.324;2023-05-11T04:21:11;95511.13;;;9.43;100.00
13027;BME280;6580;42.680;23.324;2023-05-11T04:23:57;95518.16;;;9.35;100.00
13027;BME280;6580;42.680;23.324;2023-05-11T04:26:44;95523.72;;;9.41;100.00
13027;BME280;6580;42.680;23.324;2023-05-11T04:29:31;95523.09;;;9.57;100.00
13027;BME280;6580;42.680;23.324;2023-05-11T04:32:16;95526.06;;;9.54;100.00
13027;BME280;6580;42.680;23.324;2023-05-11T04:35:04;95536.13;;;9.50;100.00
13027;BME280;6580;42.680;23.324;2023-05-11T04:37:50;95536.00;;;9.61;100.00
13027;BME280;6580;42.680;23.324;2023-05-11T04:40:36;95531.22;;;9.65;100.00
13027;BME280;6580;42.680;23.324;2023-05-11T04:43:21;95534.84;;;9.64;100.00
13027;BME280;6580;42.680;23.324;2023-05-11T04:46:06;95538.41;;;9.45;100.00
13027;BME280;6580;42.680;23.324;2023-05-11T04:48:52;95538.66;;;9.52;100.00
13027;BME280;6580;42.680;23.324;2023-05-11T04:51:39;95538.50;;;9.63;100.00
13027;BME280;6580;42.680;23.324;2023-05-11T04:54:27;95542.09;;;9.71;100.00
13027;BME280;6580;42.680;23.324;2023-05-11T04:57:15;95542.28;;;9.60;100.00
13027;BME280;6580;42.680;23.324;2023-05-11T05:00:01;95537.75;;;9.70;100.00
13027;BME280;6580;42.680;23.324;2023-05-11T05:02:48;95551.66;;;9.64;100.00
13027;BME280;6580;42.680;23.324;2023-05-11T05:05:34;95551.22;;;9.69;100.00
13027;BME280;6580;42.680;23.324;2023-05-11T05:08:20;95551.56;;;9.83;100.00
13027;BME280;6580;42.680;23.324;2023-05-11T05:11:08;95551.28;;;9.86;100.00
13027;BME280;6580;42.680;23.324;2023-05-11T05:13:56;95559.44;;;9.75;100.00
13027;BME280;6580;42.680;23.324;2023-05-11T05:16:41;95563.09;;;9.74;100.00
13027;BME280;6580;42.680;23.324;2023-05-11T05:19:28;95564.16;;;9.91;100.00
13027;BME280;6580;42.680;23.324;2023-05-11T05:22:13;95571.75;;;9.76;100.00
13027;BME280;6580;42.680;23.324;2023-05-11T05:25:00;95569.97;;;9.67;100.00
13027;BME280;6580;42.680;23.324;2023-05-11T05:27:48;95558.91;;;9.72;100.00
13027;BME280;6580;42.680;23.324;2023-05-11T05:30:34;95560.69;;;9.81;100.00
13027;BME280;6580;42.680;23.324;2023-05-11T05:33:21;95577.38;;;9.73;100.00
13027;BME280;6580;42.680;23.324;2023-05-11T05:36:08;95570.34;;;9.82;100.00
13027;BME280;6580;42.680;23.324;2023-05-11T05:38:54;95567.50;;;9.93;100.00
13027;BME280;6580;42.680;23.324;2023-05-11T05:41:41;95565.16;;;9.99;100.00
13027;BME280;6580;42.680;23.324;2023-05-11T05:44:28;95574.09;;;9.89;100.00
13027;BME280;6580;42.680;23.324;2023-05-11T05:47:14;95569.53;;;9.81;100.00
13027;BME280;6580;42.680;23.324;2023-05-11T05:50:00;95579.97;;;9.92;100.00
13027;BME280;6580;42.680;23.324;2023-05-11T05:52:45;95570.59;;;9.88;100.00
13027;BME280;6580;42.680;23.324;2023-05-11T05:55:31;95573.81;;;9.92;100.00
13027;BME280;6580;42.680;23.324;2023-05-11T05:58:21;95582.06;;;10.08;100.00
13027;BME280;6580;42.680;23.324;2023-05-11T06:01:09;95573.72;;;9.74;100.00
13027;BME280;6580;42.680;23.324;2023-05-11T06:03:56;95588.22;;;9.89;100.00
13027;BME280;6580;42.680;23.324;2023-05-11T06:06:42;95587.00;;;9.84;100.00
13027;BME280;6580;42.680;23.324;2023-05-11T06:09:31;95581.84;;;9.82;100.00
13027;BME280;6580;42.680;23.324;2023-05-11T06:12:17;95594.66;;;9.96;100.00
13027;BME280;6580;42.680;23.324;2023-05-11T06:15:03;95587.09;;;10.01;100.00
13027;BME280;6580;42.680;23.324;2023-05-11T06:17:53;95586.03;;;10.21;100.00
13027;BME280;6580;42.680;23.324;2023-05-11T06:20:53;95587.25;;;10.36;100.00
13027;BME280;6580;42.680;23.324;2023-05-11T06:23:38;95595.69;;;10.22;100.00
13027;BME280;6580;42.680;23.324;2023-05-11T06:26:23;95605.72;;;10.01;100.00
13027;BME280;6580;42.680;23.324;2023-05-11T06:29:09;95607.88;;;9.79;100.00
13027;BME280;6580;42.680;23.324;2023-05-11T06:31:54;95617.09;;;9.84;100.00
13027;BME280;6580;42.680;23.324;2023-05-11T06:34:42;95606.47;;;9.75;100.00
13027;BME280;6580;42.680;23.324;2023-05-11T06:37:28;95607.75;;;9.80;100.00
13027;BME280;6580;42.680;23.324;2023-05-11T06:40:14;95605.06;;;9.80;100.00
13027;BME280;6580;42.680;23.324;2023-05-11T06:43:08;95611.13;;;9.73;100.00
13027;BME280;6580;42.680;23.324;2023-05-11T06:45:53;95610.75;;;9.95;100.00
13027;BME280;6580;42.680;23.324;2023-05-11T06:48:39;95606.59;;;9.83;100.00
13027;BME280;6580;42.680;23.324;2023-05-11T06:51:26;95604.31;;;9.97;100.00
13027;BME280;6580;42.680;23.324;2023-05-11T06:54:11;95596.31;;;10.16;100.00
13027;BME280;6580;42.680;23.324;2023-05-11T06:56:57;95588.91;;;10.64;100.00
13027;BME280;6580;42.680;23.324;2023-05-11T06:59:42;95604.97;;;10.45;100.00
13027;BME280;6580;42.680;23.324;2023-05-11T07:02:28;95600.31;;;10.56;100.00
13027;BME280;6580;42.680;23.324;2023-05-11T07:05:15;95595.44;;;10.52;100.00
13027;BME280;6580;42.680;23.324;2023-05-11T07:08:02;95587.19;;;10.90;100.00
13027;BME280;6580;42.680;23.324;2023-05-11T07:10:52;95607.59;;;10.81;100.00
13027;BME280;6580;42.680;23.324;2023-05-11T07:13:41;95591.91;;;10.96;100.00
13027;BME280;6580;42.680;23.324;2023-05-11T07:16:28;95596.50;;;11.55;100.00
13027;BME280;6580;42.680;23.324;2023-05-11T07:19:14;95595.72;;;11.28;100.00
13027;BME280;6580;42.680;23.324;2023-05-11T07:22:00;95592.81;;;11.56;100.00
13027;BME280;6580;42.680;23.324;2023-05-11T07:24:48;95600.06;;;11.89;100.00
13027;BME280;6580;42.680;23.324;2023-05-11T07:27:35;95595.31;;;12.01;98.80
13027;BME280;6580;42.680;23.324;2023-05-11T07:30:21;95602.84;;;11.80;100.00
13027;BME280;6580;42.680;23.324;2023-05-11T07:33:09;95599.22;;;12.47;95.56
13027;BME280;6580;42.680;23.324;2023-05-11T07:35:55;95593.63;;;12.58;92.81
13027;BME280;6580;42.680;23.324;2023-05-11T07:38:55;95596.97;;;13.10;87.15
13027;BME280;6580;42.680;23.324;2023-05-11T07:41:41;95592.22;;;12.88;85.90
13027;BME280;6580;42.680;23.324;2023-05-11T07:44:27;95598.97;;;12.66;87.75
13027;BME280;6580;42.680;23.324;2023-05-11T07:47:12;95595.84;;;12.79;88.24
13027;BME280;6580;42.680;23.324;2023-05-11T07:49:58;95599.34;;;13.20;83.61
13027;BME280;6580;42.680;23.324;2023-05-11T07:52:46;95598.31;;;13.14;82.79
13027;BME280;6580;42.680;23.324;2023-05-11T07:55:31;95593.97;;;13.20;81.39
13027;BME280;6580;42.680;23.324;2023-05-11T07:58:19;95600.97;;;13.14;81.01
13027;BME280;6580;42.680;23.324;2023-05-11T08:01:05;95596.69;;;12.79;83.64
13027;BME280;6580;42.680;23.324;2023-05-11T08:03:51;95585.81;;;13.30;79.23
13027;BME280;6580;42.680;23.324;2023-05-11T08:06:37;95593.03;;;13.61;77.68
13027;BME280;6580;42.680;23.324;2023-05-11T08:09:23;95586.97;;;13.35;78.86
13027;BME280;6580;42.680;23.324;2023-05-11T08:12:08;95590.66;;;13.26;79.23
13027;BME280;6580;42.680;23.324;2023-05-11T08:14:56;95593.97;;;14.08;74.53
13027;BME280;6580;42.680;23.324;2023-05-11T08:17:42;95598.41;;;14.47;69.32
13027;BME280;6580;42.680;23.324;2023-05-11T08:20:29;95594.19;;;13.83;72.46
13027;BME280;6580;42.680;23.324;2023-05-11T08:23:18;95594.34;;;13.81;72.42
13027;BME280;6580;42.680;23.324;2023-05-11T08:26:04;95597.16;;;14.20;71.31
13027;BME280;6580;42.680;23.324;2023-05-11T08:28:50;95581.47;;;14.63;68.46
13027;BME280;6580;42.680;23.324;2023-05-11T08:31:38;95577.00;;;15.16;66.05
13027;BME280;6580;42.680;23.324;2023-05-11T08:34:25;95582.69;;;14.91;64.81
13027;BME280;6580;42.680;23.324;2023-05-11T08:37:10;95585.59;;;14.35;66.37
13027;BME280;6580;42.680;23.324;2023-05-11T08:39:56;95594.53;;;14.66;66.11
13027;BME280;6580;42.680;23.324;2023-05-11T08:42:44;95591.22;;;14.48;67.71
13027;BME280;6580;42.680;23.324;2023-05-11T08:45:32;95586.78;;;14.17;67.75
13027;BME280;6580;42.680;23.324;2023-05-11T08:48:21;95599.84;;;14.20;66.96
13027;BME280;6580;42.680;23.324;2023-05-11T08:51:08;95598.59;;;14.54;67.05
13027;BME280;6580;42.680;23.324;2023-05-11T08:53:54;95592.91;;;14.49;65.54
13027;BME280;6580;42.680;23.324;2023-05-11T08:56:44;95584.34;;;14.53;66.27
13027;BME280;6580;42.680;23.324;2023-05-11T08:59:31;95577.50;;;14.51;67.22
13027;BME280;6580;42.680;23.324;2023-05-11T09:02:18;95568.91;;;14.94;66.26
13027;BME280;6580;42.680;23.324;2023-05-11T09:05:07;95570.44;;;15.27;63.16
13027;BME280;6580;42.680;23.324;2023-05-11T09:08:00;95586.22;;;14.83;63.95
13027;BME280;6580;42.680;23.324;2023-05-11T09:10:49;95571.97;;;14.83;64.78
13027;BME280;6580;42.680;23.324;2023-05-11T09:13:36;95569.09;;;14.92;67.58
13027;BME280;6580;42.680;23.324;2023-05-11T09:16:22;95597.78;;;14.92;68.08
13027;BME280;6580;42.680;23.324;2023-05-11T09:19:13;95568.66;;;15.11;66.77
13027;BME280;6580;42.680;23.324;2023-05-11T09:22:03;95578.00;;;14.85;67.22
13027;BME280;6580;42.680;23.324;2023-05-11T09:24:52;95588.88;;;14.53;70.07
13027;BME280;6580;42.680;23.324;2023-05-11T09:27:40;95587.25;;;14.36;70.79
13027;BME280;6580;42.680;23.324;2023-05-11T09:30:27;95590.31;;;15.02;68.41
13027;BME280;6580;42.680;23.324;2023-05-11T09:33:20;95595.59;;;14.41;72.95
13027;BME280;6580;42.680;23.324;2023-05-11T09:36:22;95584.97;;;13.93;75.02
13027;BME280;6580;42.680;23.324;2023-05-11T09:39:12;95586.06;;;14.38;72.93
13027;BME280;6580;42.680;23.324;2023-05-11T09:42:27;95581.56;;;14.31;72.77
13027;BME280;6580;42.680;23.324;2023-05-11T09:45:33;95594.91;;;14.47;73.32
13027;BME280;6580;42.680;23.324;2023-05-11T09:48:29;95576.91;;;14.09;74.64
13027;BME280;6580;42.680;23.324;2023-05-11T09:51:27;95575.59;;;14.13;75.31
13027;BME280;6580;42.680;23.324;2023-05-11T09:54:20;95563.75;;;14.46;74.02
13027;BME280;6580;42.680;23.324;2023-05-11T09:57:22;95570.09;;;14.91;69.54
13027;BME280;6580;42.680;23.324;2023-05-11T10:00:13;95547.09;;;15.49;68.41
13027;BME280;6580;42.680;23.324;2023-05-11T10:03:00;95556.28;;;15.32;67.50
13027;BME280;6580;42.680;23.324;2023-05-11T10:05:56;95554.34;;;15.27;68.11
13027;BME280;6580;42.680;23.324;2023-05-11T10:08:42;95561.56;;;14.88;69.99
13027;BME280;6580;42.680;23.324;2023-05-11T10:11:33;95554.09;;;14.37;71.28
13027;BME280;6580;42.680;23.324;2023-05-11T10:14:19;95546.75;;;14.31;71.72
13027;BME280;6580;42.680;23.324;2023-05-11T10:17:06;95553.69;;;14.86;70.59
13027;BME280;6580;42.680;23.324;2023-05-11T10:19:53;95553.56;;;14.80;69.42
13027;BME280;6580;42.680;23.324;2023-05-11T10:22:40;95541.28;;;14.85;69.82
13027;BME280;6580;42.680;23.324;2023-05-11T10:25:27;95543.69;;;15.55;66.88
13027;BME280;6580;42.680;23.324;2023-05-11T10:28:14;95544.72;;;15.02;70.05
13027;BME280;6580;42.680;23.324;2023-05-11T10:31:02;95530.06;;;14.90;69.69
13027;BME280;6580;42.680;23.324;2023-05-11T10:33:51;95534.84;;;15.24;69.51
13027;BME280;6580;42.680;23.324;2023-05-11T10:36:37;95535.59;;;15.78;66.79
13027;BME280;6580;42.680;23.324;2023-05-11T10:39:24;95531.78;;;15.72;64.85
13027;BME280;6580;42.680;23.324;2023-05-11T10:45:23;95516.19;;;15.53;63.88
13027;BME280;6580;42.680;23.324;2023-05-11T10:48:26;95517.63;;;16.15;61.73
13027;BME280;6580;42.680;23.324;2023-05-11T10:51:42;95523.16;;;16.28;61.94
13027;BME280;6580;42.680;23.324;2023-05-11T10:54:47;95513.53;;;16.19;60.89
13027;BME280;6580;42.680;23.324;2023-05-11T10:57:56;95517.34;;;16.25;60.87
13027;BME280;6580;42.680;23.324;2023-05-11T11:01:17;95508.59;;;15.79;62.32
13027;BME280;6580;42.680;23.324;2023-05-11T11:04:22;95523.28;;;16.63;59.92
13027;BME280;6580;42.680;23.324;2023-05-11T11:07:11;95521.09;;;15.50;63.27
13027;BME280;6580;42.680;23.324;2023-05-11T11:10:01;95513.41;;;16.13;61.68
13027;BME280;6580;42.680;23.324;2023-05-11T11:13:01;95515.81;;;15.93;60.88
13027;BME280;6580;42.680;23.324;2023-05-11T11:16:11;95524.25;;;15.90;60.53
13027;BME280;6580;42.680;23.324;2023-05-11T11:19:36;95523.25;;;16.06;60.58
13027;BME280;6580;42.680;23.324;2023-05-11T11:22:44;95508.59;;;15.94;60.48
13027;BME280;6580;42.680;23.324;2023-05-11T11:25:50;95508.06;;;16.27;60.32
13027;BME280;6580;42.680;23.324;2023-05-11T11:29:09;95516.56;;;16.02;61.52
13027;BME280;6580;42.680;23.324;2023-05-11T11:32:25;95518.44;;;16.59;58.65
13027;BME280;6580;42.680;23.324;2023-05-11T11:35:46;95498.66;;;16.31;60.61
13027;BME280;6580;42.680;23.324;2023-05-11T11:38:56;95501.66;;;16.28;60.48
13027;BME280;6580;42.680;23.324;2023-05-11T11:41:58;95504.38;;;15.62;61.69
13027;BME280;6580;42.680;23.324;2023-05-11T11:44:45;95504.38;;;15.77;62.90
13027;BME280;6580;42.680;23.324;2023-05-11T11:47:33;95498.25;;;15.31;64.69
13027;BME280;6580;42.680;23.324;2023-05-11T11:50:19;95501.53;;;15.78;63.11
13027;BME280;6580;42.680;23.324;2023-05-11T11:53:05;95505.00;;;15.27;64.29
13027;BME280;6580;42.680;23.324;2023-05-11T11:55:54;95508.25;;;15.60;62.92
13027;BME280;6580;42.680;23.324;2023-05-11T11:58:56;95501.81;;;15.83;63.31
13027;BME280;6580;42.680;23.324;2023-05-11T12:01:44;95492.22;;;15.29;63.20
13027;BME280;6580;42.680;23.324;2023-05-11T12:04:49;95488.41;;;15.46;65.84
13027;BME280;6580;42.680;23.324;2023-05-11T12:07:38;95497.03;;;15.93;63.64
13027;BME280;6580;42.680;23.324;2023-05-11T12:10:27;95498.78;;;16.29;61.96
13027;BME280;6580;42.680;23.324;2023-05-11T12:13:12;95506.56;;;15.44;65.51
13027;BME280;6580;42.680;23.324;2023-05-11T12:16:08;95504.25;;;14.89;69.36
13027;BME280;6580;42.680;23.324;2023-05-11T12:18:55;95497.53;;;15.15;66.46
13027;BME280;6580;42.680;23.324;2023-05-11T12:21:43;95486.75;;;15.45;64.17
13027;BME280;6580;42.680;23.324;2023-05-11T12:24:29;95481.25;;;14.94;67.50
13027;BME280;6580;42.680;23.324;2023-05-11T12:27:16;95481.22;;;14.72;68.39
13027;BME280;6580;42.680;23.324;2023-05-11T12:30:02;95488.13;;;14.36;70.37
13027;BME280;6580;42.680;23.324;2023-05-11T12:32:49;95482.78;;;14.89;69.87
13027;BME280;6580;42.680;23.324;2023-05-11T12:35:36;95474.75;;;14.58;70.14
13027;BME280;6580;42.680;23.324;2023-05-11T12:38:25;95480.56;;;14.70;70.68
13027;BME280;6580;42.680;23.324;2023-05-11T12:41:18;95476.22;;;14.91;69.88
13027;BME280;6580;42.680;23.324;2023-05-11T12:44:04;95466.13;;;15.60;66.16
13027;BME280;6580;42.680;23.324;2023-05-11T12:46:51;95463.94;;;14.74;68.69
13027;BME280;6580;42.680;23.324;2023-05-11T12:49:36;95461.84;;;13.77;72.79
13027;BME280;6580;42.680;23.324;2023-05-11T12:52:22;95458.34;;;14.61;70.26
13027;BME280;6580;42.680;23.324;2023-05-11T12:55:10;95455.06;;;14.74;67.72
13027;BME280;6580;42.680;23.324;2023-05-11T12:58:06;95463.03;;;14.21;69.49
13027;BME280;6580;42.680;23.324;2023-05-11T13:00:54;95448.06;;;13.96;71.94
13027;BME280;6580;42.680;23.324;2023-05-11T13:03:44;95452.06;;;14.46;69.63
13027;BME280;6580;42.680;23.324;2023-05-11T13:06:30;95447.53;;;14.39;70.05
13027;BME280;6580;42.680;23.324;2023-05-11T13:09:20;95444.16;;;14.15;70.69
13027;BME280;6580;42.680;23.324;2023-05-11T13:12:12;95443.63;;;14.49;69.21
13027;BME280;6580;42.680;23.324;2023-05-11T13:15:06;95437.28;;;14.12;68.53
13027;BME280;6580;42.680;23.324;2023-05-11T13:17:55;95435.91;;;14.24;69.56
13027;BME280;6580;42.680;23.324;2023-05-11T13:20:41;95438.03;;;14.36;70.25
13027;BME280;6580;42.680;23.324;2023-05-11T13:23:28;95446.09;;;14.28;71.08
13027;BME280;6580;42.680;23.324;2023-05-11T13:26:21;95440.81;;;14.51;71.97
13027;BME280;6580;42.680;23.324;2023-05-11T13:29:08;95439.25;;;14.79;69.31
13027;BME280;6580;42.680;23.324;2023-05-11T13:31:54;95432.56;;;14.22;71.48
13027;BME280;6580;42.680;23.324;2023-05-11T13:34:40;95430.94;;;14.74;70.29
13027;BME280;6580;42.680;23.324;2023-05-11T13:37:26;95429.16;;;14.89;70.44
13027;BME280;6580;42.680;23.324;2023-05-11T13:40:12;95436.66;;;14.93;68.76
13027;BME280;6580;42.680;23.324;2023-05-11T13:42:59;95429.97;;;15.12;69.25
13027;BME280;6580;42.680;23.324;2023-05-11T13:45:46;95419.13;;;14.83;68.39
13027;BME280;6580;42.680;23.324;2023-05-11T13:48:34;95440.03;;;14.65;70.47
13027;BME280;6580;42.680;23.324;2023-05-11T13:51:19;95421.22;;;14.12;72.63
13027;BME280;6580;42.680;23.324;2023-05-11T13:54:05;95431.13;;;14.42;72.47
13027;BME280;6580;42.680;23.324;2023-05-11T13:56:50;95423.88;;;14.12;74.46
13027;BME280;6580;42.680;23.324;2023-05-11T13:59:37;95427.78;;;14.40;72.45
13027;BME280;6580;42.680;23.324;2023-05-11T14:02:24;95424.63;;;14.67;71.76
13027;BME280;6580;42.680;23.324;2023-05-11T14:05:12;95417.69;;;14.12;73.22
13027;BME280;6580;42.680;23.324;2023-05-11T14:07:57;95412.88;;;14.15;74.44
13027;BME280;6580;42.680;23.324;2023-05-11T14:10:42;95416.78;;;13.89;75.15
13027;BME280;6580;42.680;23.324;2023-05-11T14:13:28;95411.91;;;14.30;73.42
13027;BME280;6580;42.680;23.324;2023-05-11T14:16:13;95398.31;;;14.10;73.56
13027;BME280;6580;42.680;23.324;2023-05-11T14:19:00;95407.91;;;14.57;71.51
13027;BME280;6580;42.680;23.324;2023-05-11T14:21:45;95411.31;;;14.51;71.55
13027;BME280;6580;42.680;23.324;2023-05-11T14:24:32;95417.34;;;14.53;71.51
13027;BME280;6580;42.680;23.324;2023-05-11T14:27:21;95414.38;;;14.40;71.41
13027;BME280;6580;42.680;23.324;2023-05-11T14:30:10;95413.88;;;14.44;73.02
13027;BME280;6580;42.680;23.324;2023-05-11T14:32:57;95413.09;;;14.36;73.98
13027;BME280;6580;42.680;23.324;2023-05-11T14:35:46;95414.81;;;14.21;73.16
13027;BME280;6580;42.680;23.324;2023-05-11T14:38:33;95414.53;;;13.62;76.37
13027;BME280;6580;42.680;23.324;2023-05-11T14:41:18;95417.06;;;13.55;77.12
13027;BME280;6580;42.680;23.324;2023-05-11T14:44:06;95410.19;;;14.07;74.93
13027;BME280;6580;42.680;23.324;2023-05-11T14:46:53;95419.59;;;14.64;71.33
13027;BME280;6580;42.680;23.324;2023-05-11T14:49:38;95415.59;;;13.91;74.00
13027;BME280;6580;42.680;23.324;2023-05-11T14:52:25;95419.53;;;14.19;73.09
13027;BME280;6580;42.680;23.324;2023-05-11T14:55:11;95424.75;;;14.13;73.60
13027;BME280;6580;42.680;23.324;2023-05-11T14:57:56;95412.03;;;13.60;75.96